createdAt,value
2022-11-24T05:00:59.902Z,2.63
2022-11-24T05:05:11.451Z,2.38
2022-11-24T05:09:32.514Z,2.47
2022-11-24T05:13:53.476Z,2.75
2022-11-24T05:18:07.052Z,2.22
2022-11-24T05:22:18.561Z,2.50
2022-11-24T05:26:30.137Z,3.55
2022-11-24T05:30:42.335Z,3.17
2022-11-24T05:34:54.584Z,2.55
2022-11-24T05:39:06.100Z,3.55
2022-11-24T05:43:17.957Z,2.33
2022-11-24T05:47:29.461Z,2.80
2022-11-24T05:51:41.162Z,2.97
2022-11-24T05:55:52.683Z,2.95
2022-11-24T06:00:07.385Z,3.00
2022-11-24T06:04:23.878Z,3.20
2022-11-24T06:08:35.367Z,5.90
2022-11-24T06:12:46.931Z,3.40
2022-11-24T06:16:58.567Z,3.22
2022-11-24T06:21:11.760Z,2.80
2022-11-24T06:25:23.716Z,3.15
2022-11-24T06:29:35.209Z,2.25
2022-11-24T06:33:47.632Z,2.75
2022-11-24T06:37:59.204Z,2.85
2022-11-24T06:42:10.758Z,3.35
2022-11-24T06:46:22.686Z,3.47
2022-11-24T06:50:34.237Z,3.20
2022-11-24T06:54:45.730Z,2.60
2022-11-24T06:58:57.205Z,4.00
2022-11-24T07:03:15.473Z,3.35
2022-11-24T07:07:27.115Z,3.05
2022-11-24T07:11:39.730Z,2.78
2022-11-24T07:15:51.264Z,2.72
2022-11-24T07:20:03.236Z,2.78
2022-11-24T07:24:14.844Z,2.80
2022-11-24T07:28:26.391Z,1.95
2022-11-24T07:32:38.000Z,2.40
2022-11-24T07:36:50.099Z,2.40
2022-11-24T07:41:08.322Z,2.30
2022-11-24T07:45:20.007Z,2.83
2022-11-24T07:49:31.646Z,2.72
2022-11-24T07:53:43.562Z,2.53
2022-11-24T07:57:55.070Z,2.45
2022-11-24T08:02:06.687Z,2.17
2022-11-24T08:06:32.294Z,1.90
2022-11-24T08:10:47.672Z,2.08
2022-11-24T08:14:59.198Z,2.20
2022-11-24T08:19:11.960Z,3.63
2022-11-24T08:23:23.438Z,1.95
2022-11-24T08:27:34.991Z,2.10
2022-11-24T08:31:46.642Z,2.33
2022-11-24T08:36:06.733Z,2.15
2022-11-24T08:40:18.247Z,2.10
2022-11-24T08:44:29.821Z,1.98
2022-11-24T08:48:41.681Z,1.80
2022-11-24T08:52:53.747Z,2.13
2022-11-24T08:57:05.267Z,2.13
2022-11-24T09:01:17.763Z,2.00
2022-11-24T09:05:51.101Z,1.77
2022-11-24T09:10:00.927Z,2.05
2022-11-24T09:14:12.444Z,2.30
2022-11-24T09:18:27.580Z,2.05
2022-11-24T09:22:43.037Z,1.70
2022-11-24T09:26:55.604Z,2.00
2022-11-24T09:31:13.012Z,2.30
2022-11-24T09:35:25.021Z,2.03
2022-11-24T09:39:36.808Z,1.83
2022-11-24T09:44:08.675Z,2.55
2022-11-24T09:48:30.477Z,2.35
2022-11-24T09:53:03.454Z,1.77
2022-11-24T09:57:17.680Z,2.40
2022-11-24T10:01:37.513Z,1.95
2022-11-24T10:05:51.091Z,3.85
2022-11-24T10:10:25.237Z,3.40
2022-11-24T10:14:55.972Z,2.13
2022-11-24T10:19:22.306Z,2.58
2022-11-24T10:23:43.806Z,2.90
2022-11-24T10:28:03.115Z,2.47
2022-11-24T10:32:24.115Z,3.17
2022-11-24T10:36:56.889Z,2.50
2022-11-24T10:41:16.528Z,2.42
2022-11-24T10:45:28.614Z,2.15
2022-11-24T10:49:40.142Z,2.25
2022-11-24T10:54:08.150Z,2.35
2022-11-24T10:58:35.836Z,2.10
2022-11-24T11:02:50.240Z,2.20
2022-11-24T11:07:28.128Z,2.58
2022-11-24T11:11:40.070Z,2.00
2022-11-24T11:15:51.631Z,2.03
2022-11-24T11:20:06.975Z,1.73
2022-11-24T11:24:18.619Z,1.63
2022-11-24T11:28:30.173Z,2.22
2022-11-24T11:37:33.181Z,2.17
2022-11-24T11:41:49.516Z,2.40
2022-11-24T11:46:12.108Z,2.22
2022-11-24T11:50:31.731Z,2.13
2022-11-24T11:55:02.301Z,2.25
2022-11-24T11:59:36.337Z,2.20
2022-11-24T12:04:25.055Z,1.80
2022-11-24T12:09:20.727Z,1.58
2022-11-24T12:13:51.938Z,1.60
2022-11-24T12:18:55.394Z,2.33
2022-11-24T12:23:11.361Z,2.13
2022-11-24T12:27:48.524Z,2.22
2022-11-24T12:32:11.728Z,1.90
2022-11-24T12:36:49.125Z,2.50
2022-11-24T12:41:40.996Z,2.05
2022-11-24T12:46:12.518Z,2.10
2022-11-24T12:50:30.557Z,2.53
2022-11-24T12:54:42.103Z,2.30
2022-11-24T12:59:20.801Z,2.78
2022-11-24T13:04:01.693Z,1.95
2022-11-24T13:08:14.158Z,2.47
2022-11-24T13:12:25.709Z,2.42
2022-11-24T13:21:51.709Z,2.42
2022-11-24T13:26:30.685Z,1.83
2022-11-24T13:30:45.182Z,2.10
2022-11-24T13:35:03.814Z,1.98
2022-11-24T13:39:21.097Z,2.03
2022-11-24T13:43:32.657Z,1.83
2022-11-24T13:47:47.419Z,2.00
2022-11-24T13:52:37.189Z,2.10
2022-11-24T13:56:48.676Z,2.08
2022-11-24T14:01:19.236Z,2.28
2022-11-24T14:05:38.246Z,1.60
2022-11-24T14:09:53.266Z,1.80
2022-11-24T14:14:20.840Z,2.65
2022-11-24T14:18:34.182Z,1.85
2022-11-24T14:22:45.772Z,1.70
2022-11-24T14:26:57.336Z,1.75
2022-11-24T14:31:18.127Z,2.17
2022-11-24T14:35:35.228Z,3.03
2022-11-24T14:39:46.978Z,1.98
2022-11-24T14:44:20.482Z,1.80
2022-11-24T14:48:38.287Z,2.40
2022-11-24T14:52:54.787Z,3.38
2022-11-24T14:57:06.754Z,2.78
2022-11-24T15:01:28.291Z,2.60
2022-11-24T15:05:58.523Z,2.75
2022-11-24T15:10:36.184Z,2.72
2022-11-24T15:14:54.479Z,3.10
2022-11-24T15:19:07.915Z,3.05
2022-11-24T15:23:30.308Z,3.40
2022-11-24T15:27:41.783Z,4.80
2022-11-24T15:31:53.443Z,4.53
2022-11-24T15:36:05.256Z,2.90
2022-11-24T15:40:17.259Z,3.35
2022-11-24T15:44:29.497Z,4.93
2022-11-24T15:48:41.031Z,4.18
2022-11-24T15:52:52.766Z,6.40
2022-11-24T15:57:04.281Z,7.03
2022-11-24T16:01:16.113Z,6.25
2022-11-24T16:05:27.915Z,7.72
2022-11-24T16:09:39.448Z,10.85
2022-11-24T16:13:53.963Z,9.63
2022-11-24T16:18:06.452Z,7.53
2022-11-24T16:22:18.007Z,7.82
2022-11-24T16:26:29.541Z,6.63
2022-11-24T16:30:41.079Z,5.30
2022-11-24T16:34:52.737Z,4.65
2022-11-24T16:39:04.254Z,6.50
2022-11-24T16:43:15.842Z,5.45
2022-11-24T16:47:27.529Z,5.75
2022-11-24T16:51:39.102Z,6.47
2022-11-24T16:55:57.678Z,5.28
2022-11-24T17:00:10.049Z,5.07
2022-11-24T17:04:21.564Z,5.15
2022-11-24T17:08:39.247Z,10.05
2022-11-24T17:12:50.762Z,5.60
2022-11-24T17:17:04.975Z,4.65
2022-11-24T17:21:21.763Z,3.95
2022-11-24T17:25:33.297Z,3.67
2022-11-24T17:29:44.882Z,3.20
2022-11-24T17:33:58.344Z,2.92
2022-11-24T17:38:09.956Z,4.97
2022-11-24T17:42:21.509Z,4.40
2022-11-24T17:46:33.379Z,8.55
2022-11-24T17:50:44.919Z,12.90
2022-11-24T17:54:57.532Z,8.63
2022-11-24T17:59:09.375Z,7.35
2022-11-24T18:03:21.145Z,7.03
2022-11-24T18:07:36.068Z,5.80
2022-11-24T18:11:47.888Z,4.78
2022-11-24T18:16:04.354Z,4.30
2022-11-24T18:20:15.898Z,4.30
2022-11-24T18:24:27.418Z,3.97
2022-11-24T18:28:38.932Z,3.97
2022-11-24T18:32:50.468Z,5.03
2022-11-24T18:37:01.991Z,6.32
2022-11-24T18:41:14.820Z,5.40
2022-11-24T18:45:26.507Z,17.42
2022-11-24T18:49:38.085Z,11.18
2022-11-24T18:53:53.306Z,11.13
2022-11-24T18:58:04.891Z,6.82
2022-11-24T19:02:16.492Z,11.70
2022-11-24T19:06:33.388Z,16.25
2022-11-24T19:10:45.250Z,10.32
2022-11-24T19:14:56.753Z,9.13
2022-11-24T19:19:10.189Z,8.57
2022-11-24T19:23:22.326Z,7.30
2022-11-24T19:27:34.176Z,9.25
2022-11-24T19:31:46.175Z,8.40
2022-11-24T19:36:06.519Z,7.60
2022-11-24T19:40:18.509Z,8.88
2022-11-24T19:44:30.030Z,9.55
2022-11-24T19:48:47.112Z,9.05
2022-11-24T19:52:58.627Z,8.82
2022-11-24T19:57:10.181Z,10.82
2022-11-24T20:01:29.854Z,15.55
2022-11-24T20:05:41.520Z,9.43
2022-11-24T20:09:53.132Z,28.92
2022-11-24T20:14:06.411Z,17.80
2022-11-24T20:18:17.979Z,18.70
2022-11-24T20:22:29.694Z,15.90
2022-11-24T20:26:45.118Z,11.65
2022-11-24T20:31:01.481Z,11.82
2022-11-24T20:35:18.002Z,9.63
2022-11-24T20:39:29.986Z,8.93
2022-11-24T20:43:42.794Z,8.25
2022-11-24T20:47:54.376Z,8.57
2022-11-24T21:27:54.357Z,9.20
2022-11-24T21:38:19.684Z,14.25
2022-11-24T21:42:31.191Z,13.10
2022-11-24T21:46:48.054Z,16.20
2022-11-24T21:51:02.965Z,14.15
2022-11-24T21:55:14.489Z,14.70
2022-11-24T21:59:25.955Z,14.27
2022-11-24T22:03:37.446Z,15.13
2022-11-24T22:07:50.266Z,20.63
2022-11-24T22:12:01.811Z,16.55
2022-11-24T22:16:16.668Z,19.50
2022-11-24T22:20:28.303Z,16.00
2022-11-24T22:24:40.030Z,15.10
2022-11-24T22:28:53.707Z,8.68
